sensor_id;sensor_type;location;lat;lon;timestamp;P1;durP1;ratioP1;P2;durP2;ratioP2
15629;SDS011;7914;50.842;0.166;2023-06-24T00:01:50;26.48;;;11.77;;
15629;SDS011;7914;50.842;0.166;2023-06-24T00:04:15;23.98;;;12.57;;
15629;SDS011;7914;50.842;0.166;2023-06-24T00:09:09;25.30;;;11.52;;
15629;SDS011;7914;50.842;0.166;2023-06-24T00:11:35;20.77;;;11.25;;
15629;SDS011;7914;50.842;0.166;2023-06-24T00:14:01;27.70;;;12.18;;
15629;SDS011;7914;50.842;0.166;2023-06-24T00:16:27;24.17;;;12.77;;
15629;SDS011;7914;50.842;0.166;2023-06-24T00:18:53;27.92;;;11.55;;
15629;SDS011;7914;50.842;0.166;2023-06-24T00:21:26;24.27;;;11.98;;
15629;SDS011;7914;50.842;0.166;2023-06-24T00:23:57;25.65;;;12.85;;
15629;SDS011;7914;50.842;0.166;2023-06-24T00:26:23;21.80;;;11.10;;
15629;SDS011;7914;50.842;0.166;2023-06-24T00:28:52;19.45;;;10.68;;
15629;SDS011;7914;50.842;0.166;2023-06-24T00:31:18;22.25;;;11.88;;
15629;SDS011;7914;50.842;0.166;2023-06-24T00:33:45;19.60;;;10.80;;
15629;SDS011;7914;50.842;0.166;2023-06-24T00:36:10;18.05;;;9.55;;
15629;SDS011;7914;50.842;0.166;2023-06-24T00:38:39;22.10;;;11.65;;
15629;SDS011;7914;50.842;0.166;2023-06-24T00:41:05;18.25;;;10.05;;
15629;SDS011;7914;50.842;0.166;2023-06-24T00:43:32;19.77;;;11.43;;
15629;SDS011;7914;50.842;0.166;2023-06-24T00:45:58;20.75;;;11.63;;
15629;SDS011;7914;50.842;0.166;2023-06-24T00:48:25;21.08;;;11.68;;
15629;SDS011;7914;50.842;0.166;2023-06-24T00:50:51;20.15;;;11.98;;
15629;SDS011;7914;50.842;0.166;2023-06-24T00:53:17;22.70;;;13.25;;
15629;SDS011;7914;50.842;0.166;2023-06-24T00:55:46;20.70;;;12.13;;
15629;SDS011;7914;50.842;0.166;2023-06-24T00:58:12;20.45;;;11.68;;
15629;SDS011;7914;50.842;0.166;2023-06-24T01:00:41;19.65;;;11.68;;
15629;SDS011;7914;50.842;0.166;2023-06-24T01:03:09;24.80;;;14.07;;
15629;SDS011;7914;50.842;0.166;2023-06-24T01:05:39;23.25;;;14.07;;
15629;SDS011;7914;50.842;0.166;2023-06-24T01:08:09;23.42;;;12.38;;
15629;SDS011;7914;50.842;0.166;2023-06-24T01:10:40;19.05;;;10.10;;
15629;SDS011;7914;50.842;0.166;2023-06-24T01:13:07;18.35;;;10.52;;
15629;SDS011;7914;50.842;0.166;2023-06-24T01:15:33;21.20;;;10.52;;
15629;SDS011;7914;50.842;0.166;2023-06-24T01:18:06;19.30;;;9.88;;
15629;SDS011;7914;50.842;0.166;2023-06-24T01:32:22;19.45;;;10.57;;
15629;SDS011;7914;50.842;0.166;2023-06-24T01:37:26;21.48;;;10.07;;
15629;SDS011;7914;50.842;0.166;2023-06-24T01:40:25;20.10;;;10.57;;
15629;SDS011;7914;50.842;0.166;2023-06-24T01:43:05;19.30;;;10.38;;
15629;SDS011;7914;50.842;0.166;2023-06-24T01:45:35;20.30;;;11.20;;
15629;SDS011;7914;50.842;0.166;2023-06-24T01:48:13;20.83;;;11.20;;
15629;SDS011;7914;50.842;0.166;2023-06-24T01:50:45;22.10;;;12.40;;
15629;SDS011;7914;50.842;0.166;2023-06-24T01:53:20;28.65;;;14.50;;
15629;SDS011;7914;50.842;0.166;2023-06-24T01:55:47;28.85;;;15.63;;
15629;SDS011;7914;50.842;0.166;2023-06-24T01:58:15;27.45;;;15.65;;
15629;SDS011;7914;50.842;0.166;2023-06-24T02:03:09;24.30;;;13.52;;
15629;SDS011;7914;50.842;0.166;2023-06-24T02:05:36;22.27;;;11.95;;
15629;SDS011;7914;50.842;0.166;2023-06-24T02:08:05;20.27;;;10.45;;
15629;SDS011;7914;50.842;0.166;2023-06-24T02:10:34;20.65;;;10.27;;
15629;SDS011;7914;50.842;0.166;2023-06-24T02:13:03;20.00;;;10.75;;
15629;SDS011;7914;50.842;0.166;2023-06-24T02:15:30;20.08;;;11.45;;
15629;SDS011;7914;50.842;0.166;2023-06-24T02:17:58;22.25;;;11.30;;
15629;SDS011;7914;50.842;0.166;2023-06-24T02:20:27;20.55;;;11.32;;
15629;SDS011;7914;50.842;0.166;2023-06-24T02:22:54;19.38;;;10.82;;
15629;SDS011;7914;50.842;0.166;2023-06-24T02:25:23;19.98;;;10.27;;
15629;SDS011;7914;50.842;0.166;2023-06-24T02:27:51;19.00;;;10.27;;
15629;SDS011;7914;50.842;0.166;2023-06-24T02:30:18;22.70;;;10.75;;
15629;SDS011;7914;50.842;0.166;2023-06-24T02:32:46;19.27;;;11.23;;
15629;SDS011;7914;50.842;0.166;2023-06-24T02:35:12;19.65;;;10.18;;
15629;SDS011;7914;50.842;0.166;2023-06-24T02:37:37;18.55;;;8.50;;
15629;SDS011;7914;50.842;0.166;2023-06-24T02:40:03;17.85;;;8.77;;
15629;SDS011;7914;50.842;0.166;2023-06-24T02:42:31;19.58;;;10.00;;
15629;SDS011;7914;50.842;0.166;2023-06-24T02:44:57;16.05;;;8.63;;
15629;SDS011;7914;50.842;0.166;2023-06-24T02:47:23;18.83;;;10.00;;
15629;SDS011;7914;50.842;0.166;2023-06-24T02:49:50;16.70;;;9.15;;
15629;SDS011;7914;50.842;0.166;2023-06-24T02:52:17;18.83;;;9.63;;
15629;SDS011;7914;50.842;0.166;2023-06-24T02:54:43;22.58;;;11.10;;
15629;SDS011;7914;50.842;0.166;2023-06-24T02:57:09;20.88;;;10.75;;
15629;SDS011;7914;50.842;0.166;2023-06-24T02:59:36;18.55;;;10.65;;
15629;SDS011;7914;50.842;0.166;2023-06-24T03:02:02;18.75;;;9.18;;
15629;SDS011;7914;50.842;0.166;2023-06-24T03:04:29;17.88;;;8.98;;
15629;SDS011;7914;50.842;0.166;2023-06-24T03:06:56;20.63;;;10.32;;
15629;SDS011;7914;50.842;0.166;2023-06-24T03:11:50;18.90;;;9.98;;
15629;SDS011;7914;50.842;0.166;2023-06-24T03:14:15;21.60;;;11.43;;
15629;SDS011;7914;50.842;0.166;2023-06-24T03:16:41;18.98;;;10.05;;
15629;SDS011;7914;50.842;0.166;2023-06-24T03:19:07;20.77;;;11.98;;
15629;SDS011;7914;50.842;0.166;2023-06-24T03:21:33;24.20;;;10.88;;
15629;SDS011;7914;50.842;0.166;2023-06-24T03:23:59;24.75;;;11.77;;
15629;SDS011;7914;50.842;0.166;2023-06-24T03:26:31;19.45;;;10.30;;
15629;SDS011;7914;50.842;0.166;2023-06-24T03:29:00;17.88;;;9.30;;
15629;SDS011;7914;50.842;0.166;2023-06-24T03:31:26;22.45;;;10.93;;
15629;SDS011;7914;50.842;0.166;2023-06-24T03:33:52;21.15;;;10.52;;
15629;SDS011;7914;50.842;0.166;2023-06-24T03:36:18;21.42;;;10.88;;
15629;SDS011;7914;50.842;0.166;2023-06-24T03:38:43;20.00;;;10.48;;
15629;SDS011;7914;50.842;0.166;2023-06-24T03:41:09;20.08;;;10.50;;
15629;SDS011;7914;50.842;0.166;2023-06-24T03:43:34;21.85;;;10.70;;
15629;SDS011;7914;50.842;0.166;2023-06-24T03:46:00;23.27;;;10.55;;
15629;SDS011;7914;50.842;0.166;2023-06-24T03:48:27;21.42;;;9.82;;
15629;SDS011;7914;50.842;0.166;2023-06-24T03:50:53;21.50;;;9.88;;
15629;SDS011;7914;50.842;0.166;2023-06-24T03:53:19;20.00;;;9.93;;
15629;SDS011;7914;50.842;0.166;2023-06-24T03:55:44;20.65;;;9.60;;
15629;SDS011;7914;50.842;0.166;2023-06-24T03:58:10;23.25;;;9.95;;
15629;SDS011;7914;50.842;0.166;2023-06-24T04:00:36;21.38;;;9.75;;
15629;SDS011;7914;50.842;0.166;2023-06-24T04:03:05;20.08;;;9.95;;
15629;SDS011;7914;50.842;0.166;2023-06-24T04:05:32;17.75;;;9.23;;
15629;SDS011;7914;50.842;0.166;2023-06-24T04:07:59;19.00;;;8.80;;
15629;SDS011;7914;50.842;0.166;2023-06-24T04:10:24;17.65;;;9.27;;
15629;SDS011;7914;50.842;0.166;2023-06-24T04:12:50;17.45;;;9.13;;
15629;SDS011;7914;50.842;0.166;2023-06-24T04:15:16;16.83;;;8.45;;
15629;SDS011;7914;50.842;0.166;2023-06-24T04:17:42;18.42;;;9.15;;
15629;SDS011;7914;50.842;0.166;2023-06-24T04:20:08;18.15;;;8.27;;
15629;SDS011;7914;50.842;0.166;2023-06-24T04:22:36;17.48;;;8.77;;
15629;SDS011;7914;50.842;0.166;2023-06-24T04:25:03;13.88;;;6.70;;
15629;SDS011;7914;50.842;0.166;2023-06-24T04:27:31;16.85;;;7.90;;
15629;SDS011;7914;50.842;0.166;2023-06-24T04:29:58;16.90;;;7.85;;
15629;SDS011;7914;50.842;0.166;2023-06-24T04:32:24;17.05;;;8.50;;
15629;SDS011;7914;50.842;0.166;2023-06-24T04:34:50;16.98;;;7.15;;
15629;SDS011;7914;50.842;0.166;2023-06-24T04:37:16;18.55;;;8.45;;
15629;SDS011;7914;50.842;0.166;2023-06-24T04:39:43;17.70;;;7.50;;
15629;SDS011;7914;50.842;0.166;2023-06-24T04:42:08;17.75;;;8.55;;
15629;SDS011;7914;50.842;0.166;2023-06-24T04:44:36;17.38;;;7.25;;
15629;SDS011;7914;50.842;0.166;2023-06-24T04:47:01;18.27;;;9.38;;
15629;SDS011;7914;50.842;0.166;2023-06-24T04:49:27;18.17;;;9.25;;
15629;SDS011;7914;50.842;0.166;2023-06-24T04:51:53;17.48;;;8.80;;
15629;SDS011;7914;50.842;0.166;2023-06-24T04:54:19;21.73;;;9.65;;
15629;SDS011;7914;50.842;0.166;2023-06-24T04:56:44;22.70;;;10.02;;
15629;SDS011;7914;50.842;0.166;2023-06-24T04:59:10;21.67;;;11.25;;
15629;SDS011;7914;50.842;0.166;2023-06-24T05:01:36;17.73;;;8.43;;
15629;SDS011;7914;50.842;0.166;2023-06-24T05:04:02;20.25;;;10.00;;
15629;SDS011;7914;50.842;0.166;2023-06-24T05:06:28;21.27;;;9.35;;
15629;SDS011;7914;50.842;0.166;2023-06-24T05:08:53;18.80;;;8.48;;
15629;SDS011;7914;50.842;0.166;2023-06-24T05:11:19;17.35;;;9.02;;
15629;SDS011;7914;50.842;0.166;2023-06-24T05:13:45;18.25;;;8.10;;
15629;SDS011;7914;50.842;0.166;2023-06-24T05:16:10;14.75;;;7.68;;
15629;SDS011;7914;50.842;0.166;2023-06-24T05:18:36;17.67;;;7.80;;
15629;SDS011;7914;50.842;0.166;2023-06-24T05:21:02;17.15;;;8.00;;
15629;SDS011;7914;50.842;0.166;2023-06-24T05:23:27;14.30;;;7.47;;
15629;SDS011;7914;50.842;0.166;2023-06-24T05:25:53;16.00;;;8.02;;
15629;SDS011;7914;50.842;0.166;2023-06-24T05:28:19;16.38;;;8.23;;
15629;SDS011;7914;50.842;0.166;2023-06-24T05:30:44;18.75;;;8.18;;
15629;SDS011;7914;50.842;0.166;2023-06-24T05:33:11;16.70;;;9.25;;
15629;SDS011;7914;50.842;0.166;2023-06-24T05:35:36;16.67;;;9.07;;
15629;SDS011;7914;50.842;0.166;2023-06-24T05:38:05;16.30;;;8.27;;
15629;SDS011;7914;50.842;0.166;2023-06-24T05:40:31;17.80;;;7.78;;
15629;SDS011;7914;50.842;0.166;2023-06-24T05:42:57;18.95;;;7.75;;
15629;SDS011;7914;50.842;0.166;2023-06-24T05:45:22;18.17;;;8.27;;
15629;SDS011;7914;50.842;0.166;2023-06-24T05:47:48;17.10;;;7.55;;
15629;SDS011;7914;50.842;0.166;2023-06-24T05:50:14;13.68;;;6.35;;
15629;SDS011;7914;50.842;0.166;2023-06-24T05:52:40;13.18;;;6.13;;
15629;SDS011;7914;50.842;0.166;2023-06-24T05:55:06;16.35;;;5.97;;
15629;SDS011;7914;50.842;0.166;2023-06-24T05:57:31;10.85;;;5.05;;
15629;SDS011;7914;50.842;0.166;2023-06-24T05:59:57;11.85;;;5.80;;
15629;SDS011;7914;50.842;0.166;2023-06-24T06:02:23;14.23;;;7.07;;
15629;SDS011;7914;50.842;0.166;2023-06-24T06:04:49;12.70;;;7.13;;
15629;SDS011;7914;50.842;0.166;2023-06-24T06:07:16;12.15;;;6.57;;
15629;SDS011;7914;50.842;0.166;2023-06-24T06:09:41;11.13;;;6.50;;
15629;SDS011;7914;50.842;0.166;2023-06-24T06:12:07;14.75;;;7.28;;
15629;SDS011;7914;50.842;0.166;2023-06-24T06:14:34;11.90;;;7.43;;
15629;SDS011;7914;50.842;0.166;2023-06-24T06:16:59;13.02;;;7.22;;
15629;SDS011;7914;50.842;0.166;2023-06-24T06:19:25;12.23;;;6.28;;
15629;SDS011;7914;50.842;0.166;2023-06-24T06:21:51;12.85;;;5.72;;
15629;SDS011;7914;50.842;0.166;2023-06-24T06:24:17;10.98;;;5.38;;
15629;SDS011;7914;50.842;0.166;2023-06-24T06:26:43;10.77;;;5.35;;
15629;SDS011;7914;50.842;0.166;2023-06-24T06:29:12;10.70;;;5.63;;
15629;SDS011;7914;50.842;0.166;2023-06-24T06:31:38;9.93;;;5.40;;
15629;SDS011;7914;50.842;0.166;2023-06-24T06:34:04;11.45;;;5.00;;
15629;SDS011;7914;50.842;0.166;2023-06-24T06:36:30;11.25;;;5.05;;
15629;SDS011;7914;50.842;0.166;2023-06-24T06:38:56;9.18;;;4.55;;
15629;SDS011;7914;50.842;0.166;2023-06-24T06:41:22;10.75;;;4.60;;
15629;SDS011;7914;50.842;0.166;2023-06-24T06:43:50;7.68;;;3.85;;
15629;SDS011;7914;50.842;0.166;2023-06-24T06:46:16;9.10;;;4.13;;
15629;SDS011;7914;50.842;0.166;2023-06-24T06:48:42;7.97;;;3.92;;
15629;SDS011;7914;50.842;0.166;2023-06-24T06:51:08;8.15;;;3.88;;
15629;SDS011;7914;50.842;0.166;2023-06-24T06:53:33;9.05;;;3.85;;
15629;SDS011;7914;50.842;0.166;2023-06-24T06:55:59;7.57;;;3.60;;
15629;SDS011;7914;50.842;0.166;2023-06-24T06:58:25;8.98;;;4.15;;
15629;SDS011;7914;50.842;0.166;2023-06-24T07:00:50;8.73;;;3.97;;
15629;SDS011;7914;50.842;0.166;2023-06-24T07:03:16;6.85;;;3.60;;
15629;SDS011;7914;50.842;0.166;2023-06-24T07:05:42;7.50;;;3.22;;
15629;SDS011;7914;50.842;0.166;2023-06-24T07:08:08;8.07;;;3.85;;
15629;SDS011;7914;50.842;0.166;2023-06-24T07:10:33;8.50;;;4.07;;
15629;SDS011;7914;50.842;0.166;2023-06-24T07:13:00;8.93;;;3.85;;
15629;SDS011;7914;50.842;0.166;2023-06-24T07:15:26;7.90;;;3.67;;
15629;SDS011;7914;50.842;0.166;2023-06-24T07:17:52;8.38;;;3.50;;
15629;SDS011;7914;50.842;0.166;2023-06-24T07:20:20;9.73;;;4.70;;
15629;SDS011;7914;50.842;0.166;2023-06-24T07:22:46;7.55;;;3.70;;
15629;SDS011;7914;50.842;0.166;2023-06-24T07:25:12;8.13;;;3.88;;
15629;SDS011;7914;50.842;0.166;2023-06-24T07:27:38;6.88;;;3.65;;
15629;SDS011;7914;50.842;0.166;2023-06-24T07:30:04;7.22;;;3.55;;
15629;SDS011;7914;50.842;0.166;2023-06-24T07:32:31;7.07;;;3.88;;
15629;SDS011;7914;50.842;0.166;2023-06-24T07:34:56;6.75;;;3.75;;
15629;SDS011;7914;50.842;0.166;2023-06-24T07:37:22;9.07;;;4.00;;
15629;SDS011;7914;50.842;0.166;2023-06-24T07:39:48;7.32;;;4.00;;
15629;SDS011;7914;50.842;0.166;2023-06-24T07:42:14;8.73;;;3.92;;
15629;SDS011;7914;50.842;0.166;2023-06-24T07:44:47;6.88;;;3.60;;
15629;SDS011;7914;50.842;0.166;2023-06-24T07:47:13;7.97;;;4.05;;
15629;SDS011;7914;50.842;0.166;2023-06-24T07:49:39;7.22;;;3.25;;
15629;SDS011;7914;50.842;0.166;2023-06-24T07:52:05;8.75;;;4.20;;
15629;SDS011;7914;50.842;0.166;2023-06-24T07:54:31;9.68;;;4.28;;
15629;SDS011;7914;50.842;0.166;2023-06-24T07:56:57;9.48;;;4.60;;
15629;SDS011;7914;50.842;0.166;2023-06-24T07:59:23;7.63;;;3.58;;
15629;SDS011;7914;50.842;0.166;2023-06-24T08:01:50;10.25;;;4.50;;
15629;SDS011;7914;50.842;0.166;2023-06-24T08:04:15;8.15;;;4.35;;
15629;SDS011;7914;50.842;0.166;2023-06-24T08:06:41;8.80;;;3.65;;
15629;SDS011;7914;50.842;0.166;2023-06-24T08:09:07;9.77;;;3.90;;
15629;SDS011;7914;50.842;0.166;2023-06-24T08:11:33;8.13;;;3.97;;
15629;SDS011;7914;50.842;0.166;2023-06-24T08:13:59;8.77;;;3.67;;
15629;SDS011;7914;50.842;0.166;2023-06-24T08:16:24;8.57;;;4.30;;
15629;SDS011;7914;50.842;0.166;2023-06-24T08:18:50;8.85;;;4.15;;
15629;SDS011;7914;50.842;0.166;2023-06-24T08:21:16;8.13;;;3.83;;
15629;SDS011;7914;50.842;0.166;2023-06-24T08:23:42;9.23;;;4.07;;
15629;SDS011;7914;50.842;0.166;2023-06-24T08:26:08;12.00;;;4.32;;
15629;SDS011;7914;50.842;0.166;2023-06-24T08:28:33;7.80;;;4.38;;
15629;SDS011;7914;50.842;0.166;2023-06-24T08:31:00;8.68;;;4.07;;
15629;SDS011;7914;50.842;0.166;2023-06-24T08:33:25;8.57;;;4.05;;
15629;SDS011;7914;50.842;0.166;2023-06-24T08:35:51;8.25;;;4.45;;
15629;SDS011;7914;50.842;0.166;2023-06-24T08:38:17;8.77;;;4.28;;
15629;SDS011;7914;50.842;0.166;2023-06-24T08:40:42;8.63;;;4.15;;
15629;SDS011;7914;50.842;0.166;2023-06-24T08:43:10;11.00;;;4.63;;
15629;SDS011;7914;50.842;0.166;2023-06-24T08:45:36;10.35;;;4.50;;
15629;SDS011;7914;50.842;0.166;2023-06-24T08:48:10;9.15;;;4.90;;
15629;SDS011;7914;50.842;0.166;2023-06-24T08:50:40;8.88;;;4.40;;
15629;SDS011;7914;50.842;0.166;2023-06-24T08:53:09;9.88;;;4.53;;
15629;SDS011;7914;50.842;0.166;2023-06-24T08:55:36;9.43;;;4.40;;
15629;SDS011;7914;50.842;0.166;2023-06-24T08:58:05;7.53;;;3.92;;
15629;SDS011;7914;50.842;0.166;2023-06-24T09:00:31;8.18;;;4.70;;
15629;SDS011;7914;50.842;0.166;2023-06-24T09:02:56;7.65;;;4.20;;
15629;SDS011;7914;50.842;0.166;2023-06-24T09:05:23;9.65;;;4.25;;
15629;SDS011;7914;50.842;0.166;2023-06-24T09:07:48;11.95;;;4.88;;
15629;SDS011;7914;50.842;0.166;2023-06-24T09:10:30;8.60;;;4.22;;
15629;SDS011;7914;50.842;0.166;2023-06-24T09:12:57;9.88;;;4.63;;
15629;SDS011;7914;50.842;0.166;2023-06-24T09:15:23;8.93;;;4.95;;
15629;SDS011;7914;50.842;0.166;2023-06-24T09:17:49;10.30;;;4.80;;
15629;SDS011;7914;50.842;0.166;2023-06-24T09:20:15;10.65;;;5.15;;
15629;SDS011;7914;50.842;0.166;2023-06-24T09:22:45;8.27;;;4.82;;
15629;SDS011;7914;50.842;0.166;2023-06-24T09:25:16;9.55;;;4.85;;
15629;SDS011;7914;50.842;0.166;2023-06-24T09:27:46;9.73;;;4.80;;
15629;SDS011;7914;50.842;0.166;2023-06-24T09:30:24;9.52;;;4.63;;
15629;SDS011;7914;50.842;0.166;2023-06-24T09:32:53;10.10;;;5.57;;
15629;SDS011;7914;50.842;0.166;2023-06-24T09:35:24;9.75;;;4.70;;
15629;SDS011;7914;50.842;0.166;2023-06-24T09:37:51;10.50;;;4.78;;
15629;SDS011;7914;50.842;0.166;2023-06-24T09:40:17;10.38;;;5.18;;
15629;SDS011;7914;50.842;0.166;2023-06-24T09:42:54;11.23;;;5.40;;
15629;SDS011;7914;50.842;0.166;2023-06-24T09:45:26;8.82;;;4.60;;
15629;SDS011;7914;50.842;0.166;2023-06-24T09:47:53;11.55;;;4.90;;
15629;SDS011;7914;50.842;0.166;2023-06-24T09:50:20;9.40;;;4.20;;
15629;SDS011;7914;50.842;0.166;2023-06-24T09:52:46;8.10;;;4.50;;
15629;SDS011;7914;50.842;0.166;2023-06-24T09:57:44;8.57;;;4.65;;
15629;SDS011;7914;50.842;0.166;2023-06-24T10:00:12;9.40;;;4.57;;
15629;SDS011;7914;50.842;0.166;2023-06-24T10:02:40;9.82;;;5.03;;
15629;SDS011;7914;50.842;0.166;2023-06-24T10:05:06;8.82;;;4.68;;
15629;SDS011;7914;50.842;0.166;2023-06-24T10:07:33;10.02;;;5.32;;
15629;SDS011;7914;50.842;0.166;2023-06-24T10:10:03;13.70;;;6.47;;
15629;SDS011;7914;50.842;0.166;2023-06-24T10:12:29;10.25;;;5.28;;
15629;SDS011;7914;50.842;0.166;2023-06-24T10:14:57;10.18;;;5.30;;
15629;SDS011;7914;50.842;0.166;2023-06-24T10:17:24;11.48;;;5.22;;
15629;SDS011;7914;50.842;0.166;2023-06-24T10:19:51;9.27;;;5.05;;
15629;SDS011;7914;50.842;0.166;2023-06-24T10:22:17;9.00;;;4.78;;
15629;SDS011;7914;50.842;0.166;2023-06-24T10:24:49;8.13;;;4.65;;
15629;SDS011;7914;50.842;0.166;2023-06-24T10:29:46;8.98;;;5.13;;
15629;SDS011;7914;50.842;0.166;2023-06-24T10:32:13;9.38;;;4.88;;
15629;SDS011;7914;50.842;0.166;2023-06-24T10:43:33;11.65;;;5.85;;
15629;SDS011;7914;50.842;0.166;2023-06-24T10:46:06;11.52;;;5.05;;
15629;SDS011;7914;50.842;0.166;2023-06-24T10:48:41;10.38;;;5.13;;
15629;SDS011;7914;50.842;0.166;2023-06-24T10:51:06;9.02;;;5.45;;
15629;SDS011;7914;50.842;0.166;2023-06-24T10:53:32;8.23;;;5.15;;
15629;SDS011;7914;50.842;0.166;2023-06-24T10:55:58;10.77;;;5.32;;
15629;SDS011;7914;50.842;0.166;2023-06-24T10:58:24;8.07;;;4.60;;
15629;SDS011;7914;50.842;0.166;2023-06-24T11:00:50;8.27;;;4.72;;
15629;SDS011;7914;50.842;0.166;2023-06-24T11:03:16;8.75;;;4.07;;
15629;SDS011;7914;50.842;0.166;2023-06-24T11:05:44;9.20;;;4.80;;
15629;SDS011;7914;50.842;0.166;2023-06-24T11:08:11;9.48;;;4.95;;
15629;SDS011;7914;50.842;0.166;2023-06-24T11:10:44;9.70;;;5.00;;
15629;SDS011;7914;50.842;0.166;2023-06-24T11:13:11;9.70;;;4.78;;
15629;SDS011;7914;50.842;0.166;2023-06-24T11:15:37;9.52;;;4.70;;
15629;SDS011;7914;50.842;0.166;2023-06-24T11:18:08;9.05;;;4.65;;
15629;SDS011;7914;50.842;0.166;2023-06-24T11:23:01;8.68;;;4.22;;
15629;SDS011;7914;50.842;0.166;2023-06-24T11:25:27;10.27;;;5.05;;
15629;SDS011;7914;50.842;0.166;2023-06-24T11:27:52;9.77;;;4.55;;
15629;SDS011;7914;50.842;0.166;2023-06-24T11:30:18;9.30;;;4.85;;
15629;SDS011;7914;50.842;0.166;2023-06-24T11:32:44;9.13;;;4.90;;
15629;SDS011;7914;50.842;0.166;2023-06-24T11:35:11;7.88;;;5.03;;
15629;SDS011;7914;50.842;0.166;2023-06-24T11:37:45;9.77;;;4.05;;
15629;SDS011;7914;50.842;0.166;2023-06-24T11:40:11;8.00;;;4.40;;
15629;SDS011;7914;50.842;0.166;2023-06-24T11:42:39;8.52;;;4.40;;
15629;SDS011;7914;50.842;0.166;2023-06-24T11:45:09;8.10;;;4.68;;
15629;SDS011;7914;50.842;0.166;2023-06-24T11:47:36;9.65;;;5.30;;
15629;SDS011;7914;50.842;0.166;2023-06-24T11:50:03;8.82;;;5.05;;
15629;SDS011;7914;50.842;0.166;2023-06-24T11:52:49;12.57;;;5.18;;
15629;SDS011;7914;50.842;0.166;2023-06-24T11:55:21;9.65;;;4.07;;
15629;SDS011;7914;50.842;0.166;2023-06-24T11:57:55;10.40;;;4.55;;
15629;SDS011;7914;50.842;0.166;2023-06-24T12:00:23;10.73;;;4.75;;
15629;SDS011;7914;50.842;0.166;2023-06-24T12:02:58;9.63;;;5.40;;
15629;SDS011;7914;50.842;0.166;2023-06-24T12:05:29;7.88;;;5.32;;
15629;SDS011;7914;50.842;0.166;2023-06-24T12:07:56;7.95;;;4.63;;
15629;SDS011;7914;50.842;0.166;2023-06-24T12:10:23;9.40;;;4.55;;
15629;SDS011;7914;50.842;0.166;2023-06-24T12:12:49;9.98;;;4.90;;
15629;SDS011;7914;50.842;0.166;2023-06-24T12:15:16;9.35;;;4.30;;
15629;SDS011;7914;50.842;0.166;2023-06-24T12:17:41;8.10;;;4.28;;
15629;SDS011;7914;50.842;0.166;2023-06-24T12:20:07;9.68;;;5.00;;
15629;SDS011;7914;50.842;0.166;2023-06-24T12:22:35;9.45;;;4.57;;
15629;SDS011;7914;50.842;0.166;2023-06-24T12:25:01;11.38;;;5.38;;
15629;SDS011;7914;50.842;0.166;2023-06-24T12:27:27;10.25;;;4.68;;
15629;SDS011;7914;50.842;0.166;2023-06-24T12:29:53;8.98;;;4.82;;
15629;SDS011;7914;50.842;0.166;2023-06-24T12:32:19;12.15;;;5.30;;
15629;SDS011;7914;50.842;0.166;2023-06-24T12:34:44;10.43;;;5.50;;
15629;SDS011;7914;50.842;0.166;2023-06-24T12:37:13;10.48;;;4.88;;
15629;SDS011;7914;50.842;0.166;2023-06-24T12:39:39;10.20;;;4.50;;
15629;SDS011;7914;50.842;0.166;2023-06-24T12:42:04;12.55;;;5.60;;
15629;SDS011;7914;50.842;0.166;2023-06-24T12:44:31;8.50;;;4.15;;
15629;SDS011;7914;50.842;0.166;2023-06-24T12:46:57;9.07;;;4.47;;
15629;SDS011;7914;50.842;0.166;2023-06-24T12:49:22;9.40;;;4.45;;
15629;SDS011;7914;50.842;0.166;2023-06-24T12:51:48;8.70;;;4.25;;
15629;SDS011;7914;50.842;0.166;2023-06-24T12:54:14;8.93;;;5.25;;
15629;SDS011;7914;50.842;0.166;2023-06-24T12:56:39;8.65;;;4.70;;
15629;SDS011;7914;50.842;0.166;2023-06-24T12:59:05;9.73;;;4.00;;
15629;SDS011;7914;50.842;0.166;2023-06-24T13:01:31;9.40;;;4.60;;
15629;SDS011;7914;50.842;0.166;2023-06-24T13:03:56;8.32;;;4.57;;
15629;SDS011;7914;50.842;0.166;2023-06-24T13:06:22;10.25;;;3.70;;
15629;SDS011;7914;50.842;0.166;2023-06-24T13:08:48;11.20;;;4.35;;
15629;SDS011;7914;50.842;0.166;2023-06-24T13:11:13;10.15;;;4.63;;
15629;SDS011;7914;50.842;0.166;2023-06-24T13:13:39;10.57;;;4.60;;
15629;SDS011;7914;50.842;0.166;2023-06-24T13:16:05;7.65;;;4.20;;
15629;SDS011;7914;50.842;0.166;2023-06-24T13:18:30;8.90;;;4.50;;
15629;SDS011;7914;50.842;0.166;2023-06-24T13:20:56;9.35;;;4.68;;
15629;SDS011;7914;50.842;0.166;2023-06-24T13:23:22;9.07;;;4.00;;
15629;SDS011;7914;50.842;0.166;2023-06-24T13:25:47;8.45;;;4.18;;
15629;SDS011;7914;50.842;0.166;2023-06-24T13:28:13;7.68;;;3.70;;
15629;SDS011;7914;50.842;0.166;2023-06-24T13:30:39;8.38;;;3.83;;
15629;SDS011;7914;50.842;0.166;2023-06-24T13:33:04;8.90;;;4.32;;
15629;SDS011;7914;50.842;0.166;2023-06-24T13:35:30;12.40;;;4.13;;
15629;SDS011;7914;50.842;0.166;2023-06-24T13:37:56;6.32;;;3.13;;
15629;SDS011;7914;50.842;0.166;2023-06-24T13:40:23;6.70;;;3.08;;
15629;SDS011;7914;50.842;0.166;2023-06-24T13:42:49;8.00;;;3.17;;
15629;SDS011;7914;50.842;0.166;2023-06-24T13:45:15;6.78;;;3.40;;
15629;SDS011;7914;50.842;0.166;2023-06-24T13:47:41;14.65;;;3.65;;
15629;SDS011;7914;50.842;0.166;2023-06-24T13:50:07;6.65;;;3.03;;
15629;SDS011;7914;50.842;0.166;2023-06-24T13:52:33;7.47;;;3.28;;
15629;SDS011;7914;50.842;0.166;2023-06-24T13:54:59;7.10;;;3.50;;
15629;SDS011;7914;50.842;0.166;2023-06-24T13:57:25;7.70;;;3.50;;
15629;SDS011;7914;50.842;0.166;2023-06-24T13:59:51;6.13;;;3.35;;
15629;SDS011;7914;50.842;0.166;2023-06-24T14:02:17;7.25;;;3.40;;
15629;SDS011;7914;50.842;0.166;2023-06-24T14:04:44;7.88;;;3.70;;
15629;SDS011;7914;50.842;0.166;2023-06-24T14:07:10;7.18;;;3.13;;
15629;SDS011;7914;50.842;0.166;2023-06-24T14:09:36;5.72;;;3.08;;
15629;SDS011;7914;50.842;0.166;2023-06-24T14:12:03;6.88;;;3.33;;
15629;SDS011;7914;50.842;0.166;2023-06-24T14:14:29;7.05;;;2.92;;
15629;SDS011;7914;50.842;0.166;2023-06-24T14:16:55;6.97;;;2.90;;
15629;SDS011;7914;50.842;0.166;2023-06-24T14:19:21;5.80;;;2.95;;
15629;SDS011;7914;50.842;0.166;2023-06-24T14:21:46;6.20;;;3.13;;
15629;SDS011;7914;50.842;0.166;2023-06-24T14:24:12;6.93;;;3.33;;
15629;SDS011;7914;50.842;0.166;2023-06-24T14:26:38;7.18;;;3.05;;
15629;SDS011;7914;50.842;0.166;2023-06-24T14:29:04;6.43;;;3.47;;
15629;SDS011;7914;50.842;0.166;2023-06-24T14:31:30;9.60;;;2.85;;
15629;SDS011;7914;50.842;0.166;2023-06-24T14:33:55;7.47;;;2.72;;
15629;SDS011;7914;50.842;0.166;2023-06-24T14:36:21;8.23;;;3.25;;
15629;SDS011;7914;50.842;0.166;2023-06-24T14:38:47;6.40;;;2.75;;
15629;SDS011;7914;50.842;0.166;2023-06-24T14:41:19;7.57;;;3.15;;
15629;SDS011;7914;50.842;0.166;2023-06-24T14:43:44;5.85;;;2.90;;
15629;SDS011;7914;50.842;0.166;2023-06-24T14:46:10;7.50;;;3.10;;
15629;SDS011;7914;50.842;0.166;2023-06-24T14:48:36;5.78;;;2.67;;
15629;SDS011;7914;50.842;0.166;2023-06-24T14:51:01;7.35;;;3.10;;
15629;SDS011;7914;50.842;0.166;2023-06-24T14:53:27;6.70;;;2.75;;
15629;SDS011;7914;50.842;0.166;2023-06-24T14:55:53;6.43;;;2.70;;
15629;SDS011;7914;50.842;0.166;2023-06-24T14:58:18;6.15;;;2.53;;
15629;SDS011;7914;50.842;0.166;2023-06-24T15:00:45;9.95;;;3.22;;
15629;SDS011;7914;50.842;0.166;2023-06-24T15:03:19;6.45;;;2.63;;
15629;SDS011;7914;50.842;0.166;2023-06-24T15:05:45;5.63;;;2.60;;
15629;SDS011;7914;50.842;0.166;2023-06-24T15:08:11;8.57;;;2.90;;
15629;SDS011;7914;50.842;0.166;2023-06-24T15:10:37;7.25;;;2.75;;
15629;SDS011;7914;50.842;0.166;2023-06-24T15:13:03;6.60;;;2.97;;
15629;SDS011;7914;50.842;0.166;2023-06-24T15:15:28;5.80;;;2.22;;
15629;SDS011;7914;50.842;0.166;2023-06-24T15:17:54;6.63;;;2.47;;
15629;SDS011;7914;50.842;0.166;2023-06-24T15:20:20;5.70;;;2.40;;
15629;SDS011;7914;50.842;0.166;2023-06-24T15:22:45;6.55;;;2.50;;
15629;SDS011;7914;50.842;0.166;2023-06-24T15:25:11;5.35;;;2.60;;
15629;SDS011;7914;50.842;0.166;2023-06-24T15:27:36;5.90;;;2.47;;